createdAt,value
2018-06-09T00:00:33.618Z,94.50
2018-06-09T00:03:02.381Z,94.50
2018-06-09T00:05:31.265Z,94.40
2018-06-09T00:07:59.993Z,94.10
2018-06-09T00:10:28.697Z,94.10
2018-06-09T00:12:57.506Z,93.70
2018-06-09T00:15:31.921Z,94.00
2018-06-09T00:18:00.697Z,93.60
2018-06-09T00:20:29.558Z,93.70
2018-06-09T00:22:58.434Z,93.80
2018-06-09T00:25:27.155Z,93.70
2018-06-09T00:27:55.869Z,94.20
2018-06-09T00:30:24.620Z,94.00
2018-06-09T00:32:53.337Z,93.80
2018-06-09T00:35:23.253Z,94.20
2018-06-09T00:37:51.974Z,94.20
2018-06-09T00:40:20.694Z,93.80
2018-06-09T00:42:49.413Z,94.00
2018-06-09T00:45:18.158Z,94.40
2018-06-09T00:47:46.869Z,94.90
2018-06-09T00:50:15.602Z,94.70
2018-06-09T00:52:44.321Z,94.70
2018-06-09T00:55:13.041Z,94.40
2018-06-09T00:57:41.787Z,94.20
2018-06-09T01:00:10.505Z,94.10
2018-06-09T01:02:39.273Z,94.30
2018-06-09T01:05:08.001Z,94.00
2018-06-09T01:07:36.805Z,94.10
2018-06-09T01:12:33.958Z,94.40
2018-06-09T01:15:02.703Z,94.30
2018-06-09T01:17:31.409Z,94.40
2018-06-09T01:20:00.945Z,94.20
2018-06-09T01:22:29.791Z,94.10
2018-06-09T01:24:58.517Z,94.00
2018-06-09T01:27:27.294Z,94.00
2018-06-09T01:29:56.002Z,94.00
2018-06-09T01:32:24.734Z,94.40
2018-06-09T01:34:53.534Z,94.40
2018-06-09T01:37:22.245Z,94.50
2018-06-09T01:39:50.957Z,94.20
2018-06-09T01:42:19.696Z,94.10
2018-06-09T01:44:48.414Z,94.40
2018-06-09T01:47:17.329Z,94.10
2018-06-09T01:49:46.065Z,94.00
2018-06-09T01:52:14.789Z,94.80
2018-06-09T01:54:44.582Z,94.50
2018-06-09T01:57:13.294Z,94.40
2018-06-09T01:59:42.037Z,94.10
2018-06-09T02:02:10.745Z,94.00
2018-06-09T02:04:39.461Z,94.00
2018-06-09T02:07:13.916Z,94.00
2018-06-09T02:09:42.643Z,93.70
2018-06-09T02:12:11.345Z,93.70
2018-06-09T02:14:40.066Z,94.00
2018-06-09T02:17:12.797Z,94.10
2018-06-09T02:19:41.497Z,93.90
2018-06-09T02:22:10.279Z,93.90
2018-06-09T02:24:39.033Z,94.40
2018-06-09T02:27:07.814Z,94.50
2018-06-09T02:29:36.557Z,95.20
2018-06-09T02:32:05.283Z,95.10
2018-06-09T02:34:40.825Z,94.90
2018-06-09T02:39:38.045Z,94.40
2018-06-09T02:42:06.765Z,94.40
2018-06-09T02:44:35.482Z,94.20
2018-06-09T02:47:04.744Z,93.90
2018-06-09T02:49:33.489Z,93.80
2018-06-09T02:52:02.238Z,93.80
2018-06-09T02:56:59.465Z,94.60
2018-06-09T02:59:28.183Z,94.40
2018-06-09T03:01:56.894Z,94.30
2018-06-09T03:04:26.849Z,94.30
2018-06-09T03:06:55.779Z,94.60
2018-06-09T03:09:24.469Z,95.00
2018-06-09T03:11:53.198Z,94.70
2018-06-09T03:14:21.917Z,94.90
2018-06-09T03:16:55.812Z,94.80
2018-06-09T03:19:24.583Z,94.60
2018-06-09T03:21:53.329Z,94.50
2018-06-09T03:24:22.090Z,94.20
2018-06-09T03:26:50.798Z,93.70
2018-06-09T03:29:19.549Z,93.90
2018-06-09T03:31:48.297Z,94.00
2018-06-09T03:34:17.021Z,94.10
2018-06-09T03:36:45.738Z,94.40
2018-06-09T03:39:14.446Z,94.20
2018-06-09T03:44:43.049Z,94.60
2018-06-09T03:47:11.824Z,94.30
2018-06-09T03:49:40.577Z,94.60
2018-06-09T03:52:09.336Z,95.00
2018-06-09T03:54:38.093Z,95.10
2018-06-09T03:57:06.843Z,95.00
2018-06-09T03:59:35.639Z,94.60
2018-06-09T04:02:04.761Z,94.30
2018-06-09T04:04:34.673Z,94.30
2018-06-09T04:07:03.385Z,94.30
2018-06-09T04:09:32.119Z,94.40
2018-06-09T04:12:00.861Z,94.30
2018-06-09T04:14:29.590Z,94.40
2018-06-09T04:16:58.297Z,94.50
2018-06-09T04:19:39.470Z,94.70
2018-06-09T04:22:08.196Z,94.80
2018-06-09T04:24:36.945Z,94.80
2018-06-09T04:27:05.649Z,94.70
2018-06-09T04:29:34.360Z,94.80
2018-06-09T04:32:03.222Z,95.00
2018-06-09T04:34:31.929Z,95.30
2018-06-09T04:37:00.666Z,95.10
2018-06-09T04:39:29.437Z,95.30
2018-06-09T04:41:58.158Z,94.90
2018-06-09T04:44:26.881Z,94.30
2018-06-09T04:46:55.618Z,94.10
2018-06-09T04:49:24.354Z,94.40
2018-06-09T04:51:53.073Z,94.40
2018-06-09T04:54:21.840Z,94.70
2018-06-09T04:56:50.706Z,94.80
2018-06-09T04:59:19.520Z,94.60
2018-06-09T05:01:48.169Z,94.50
2018-06-09T05:04:16.921Z,94.60
2018-06-09T05:06:45.673Z,94.60
2018-06-09T05:09:14.390Z,94.80
2018-06-09T05:11:43.125Z,94.90
2018-06-09T05:14:11.837Z,95.10
2018-06-09T05:16:40.610Z,95.20
2018-06-09T05:19:10.715Z,95.10
2018-06-09T05:21:39.452Z,95.10
2018-06-09T05:24:08.134Z,95.00
2018-06-09T05:26:37.025Z,94.60
2018-06-09T05:29:05.774Z,94.30
2018-06-09T05:31:34.509Z,94.60
2018-06-09T05:34:03.229Z,94.50
2018-06-09T05:36:31.945Z,94.40
2018-06-09T05:39:00.651Z,94.30
2018-06-09T05:41:29.394Z,94.20
2018-06-09T05:43:58.112Z,94.00
2018-06-09T05:46:26.829Z,94.20
2018-06-09T05:48:55.570Z,93.70
2018-06-09T05:51:24.308Z,93.50
2018-06-09T05:53:53.027Z,93.30
2018-06-09T05:56:21.758Z,93.20
2018-06-09T05:58:50.481Z,93.70
2018-06-09T06:01:19.203Z,93.20
2018-06-09T06:03:47.909Z,93.40
2018-06-09T06:06:16.652Z,93.20
2018-06-09T06:08:45.425Z,93.30
2018-06-09T06:11:14.137Z,93.30
2018-06-09T06:13:44.202Z,93.30
2018-06-09T06:16:12.934Z,93.30
2018-06-09T06:21:10.257Z,93.50
2018-06-09T06:23:39.034Z,93.80
2018-06-09T06:26:07.721Z,93.60
2018-06-09T06:28:36.437Z,93.30
2018-06-09T06:31:05.153Z,92.90
2018-06-09T06:33:33.899Z,92.80
2018-06-09T06:36:02.701Z,92.80
2018-06-09T06:38:31.462Z,93.00
2018-06-09T06:41:00.177Z,92.60
2018-06-09T06:43:28.933Z,92.10
2018-06-09T06:45:57.661Z,92.30
2018-06-09T06:48:26.393Z,91.80
2018-06-09T06:50:55.154Z,91.50
2018-06-09T06:53:23.854Z,91.70
2018-06-09T06:55:52.567Z,92.80
2018-06-09T06:58:21.290Z,92.10
2018-06-09T07:00:50.053Z,91.40
2018-06-09T07:03:18.941Z,91.90
2018-06-09T07:05:47.705Z,91.00
2018-06-09T07:08:16.532Z,91.20
2018-06-09T07:10:45.413Z,91.00
2018-06-09T07:13:14.181Z,91.00
2018-06-09T07:15:48.857Z,91.20
2018-06-09T07:18:17.617Z,91.90
2018-06-09T07:20:46.350Z,93.10
2018-06-09T07:23:15.214Z,92.10
2018-06-09T07:25:43.925Z,93.30
2018-06-09T07:28:12.653Z,93.60
2018-06-09T07:30:41.437Z,92.40
2018-06-09T07:33:10.157Z,92.90
2018-06-09T07:35:56.552Z,92.70
2018-06-09T07:38:25.313Z,92.10
2018-06-09T07:40:58.933Z,91.60
2018-06-09T07:43:27.660Z,92.00
2018-06-09T07:46:02.478Z,92.00
2018-06-09T07:48:31.182Z,90.90
2018-06-09T07:50:59.964Z,91.10
2018-06-09T07:53:28.669Z,91.60
2018-06-09T07:55:57.385Z,91.30
2018-06-09T07:58:26.115Z,90.80
2018-06-09T08:01:08.511Z,90.60
2018-06-09T08:03:37.245Z,90.70
2018-06-09T08:06:05.997Z,90.70
2018-06-09T08:08:34.773Z,90.70
2018-06-09T08:11:03.505Z,90.70
2018-06-09T08:13:32.242Z,90.30
2018-06-09T08:16:00.975Z,90.00
2018-06-09T08:18:29.699Z,90.50
2018-06-09T08:20:58.531Z,90.40
2018-06-09T08:23:27.429Z,90.10
2018-06-09T08:25:56.129Z,90.70
2018-06-09T08:28:24.910Z,89.80
2018-06-09T08:30:53.621Z,89.70
2018-06-09T08:33:22.334Z,89.90
2018-06-09T08:35:51.048Z,90.00
2018-06-09T08:38:19.793Z,90.50
2018-06-09T08:40:48.666Z,90.60
2018-06-09T08:43:17.371Z,91.00
2018-06-09T08:45:46.120Z,89.80
2018-06-09T08:48:14.866Z,90.10
2018-06-09T08:50:43.602Z,88.10
2018-06-09T08:53:19.237Z,88.70
2018-06-09T08:55:48.161Z,87.40
2018-06-09T08:58:16.905Z,86.80
2018-06-09T09:00:45.609Z,85.20
2018-06-09T09:03:25.641Z,85.80
2018-06-09T09:05:54.353Z,84.80
2018-06-09T09:08:23.089Z,85.20
2018-06-09T09:10:51.929Z,84.70
2018-06-09T09:13:20.701Z,83.40
2018-06-09T09:15:49.433Z,84.20
2018-06-09T09:18:18.141Z,84.10
2018-06-09T09:20:46.853Z,82.40
2018-06-09T09:23:18.017Z,82.60
2018-06-09T09:25:46.785Z,82.50
2018-06-09T09:28:15.581Z,84.40
2018-06-09T09:30:44.306Z,83.60
2018-06-09T09:33:13.021Z,82.10
2018-06-09T09:35:41.747Z,81.00
2018-06-09T09:38:11.765Z,81.30
2018-06-09T09:40:40.546Z,81.50
2018-06-09T09:43:09.265Z,78.60
2018-06-09T09:45:37.999Z,82.40
2018-06-09T09:48:06.713Z,79.90
2018-06-09T09:50:35.709Z,79.00
2018-06-09T09:53:04.487Z,74.50
2018-06-09T09:55:33.221Z,74.40
2018-06-09T09:58:02.717Z,73.10
2018-06-09T10:00:37.837Z,74.10
2018-06-09T10:03:06.747Z,73.80
2018-06-09T10:05:35.462Z,73.10
2018-06-09T10:10:33.131Z,73.10
2018-06-09T10:13:01.827Z,75.00
2018-06-09T10:15:30.605Z,74.20
2018-06-09T10:17:59.489Z,73.00
2018-06-09T10:20:28.185Z,74.70
2018-06-09T10:22:56.966Z,74.60
2018-06-09T10:25:25.708Z,74.90
2018-06-09T10:27:54.488Z,73.50
2018-06-09T10:30:23.254Z,72.00
2018-06-09T10:32:52.021Z,74.90
2018-06-09T10:35:20.674Z,74.70
2018-06-09T10:37:49.425Z,74.10
2018-06-09T10:40:18.173Z,73.30
2018-06-09T10:42:46.890Z,72.00
2018-06-09T10:45:15.608Z,73.20
2018-06-09T10:47:44.358Z,71.80
2018-06-09T10:50:13.073Z,73.00
2018-06-09T10:52:41.805Z,72.20
2018-06-09T10:55:10.560Z,68.30
2018-06-09T10:57:39.317Z,69.80
2018-06-09T11:00:08.071Z,68.90
2018-06-09T11:02:36.761Z,66.70
2018-06-09T11:05:05.501Z,67.60
2018-06-09T11:07:34.192Z,68.20
2018-06-09T11:10:02.974Z,67.30
2018-06-09T11:12:31.733Z,67.20
2018-06-09T11:15:00.461Z,68.40
2018-06-09T11:17:29.225Z,69.80
2018-06-09T11:19:58.021Z,65.40
2018-06-09T11:22:26.737Z,65.40
2018-06-09T11:24:55.489Z,66.90
2018-06-09T11:27:24.217Z,69.70
2018-06-09T11:29:52.909Z,66.70
2018-06-09T11:32:21.613Z,67.40
2018-06-09T11:34:50.478Z,65.20
2018-06-09T11:37:19.182Z,69.70
2018-06-09T11:39:47.886Z,67.50
2018-06-09T11:42:16.644Z,68.20
2018-06-09T11:44:45.349Z,66.40
2018-06-09T11:47:14.142Z,66.60
2018-06-09T11:49:42.781Z,65.50
2018-06-09T11:52:11.566Z,63.80
2018-06-09T11:54:40.325Z,64.40
2018-06-09T11:57:09.157Z,65.30
2018-06-09T11:59:38.014Z,65.00
2018-06-09T12:02:06.788Z,64.50
2018-06-09T12:04:35.510Z,66.30
2018-06-09T12:07:04.265Z,62.30
2018-06-09T12:09:33.045Z,61.80
2018-06-09T12:12:01.753Z,66.00
2018-06-09T12:14:30.445Z,63.00
2018-06-09T12:16:59.313Z,61.40
2018-06-09T12:19:28.209Z,61.30
2018-06-09T12:21:57.161Z,62.90
2018-06-09T12:24:25.851Z,61.80
2018-06-09T12:26:54.678Z,62.30
2018-06-09T12:29:23.434Z,62.10
2018-06-09T12:31:52.141Z,62.60
2018-06-09T12:34:20.854Z,63.50
2018-06-09T12:36:56.025Z,63.40
2018-06-09T12:39:24.826Z,62.70
2018-06-09T12:41:53.544Z,63.90
2018-06-09T12:44:22.249Z,63.80
2018-06-09T12:46:50.941Z,62.60
2018-06-09T12:49:19.721Z,62.60
2018-06-09T12:51:48.428Z,61.70
2018-06-09T12:54:17.337Z,61.20
2018-06-09T12:56:46.051Z,60.40
2018-06-09T12:59:14.759Z,59.60
2018-06-09T13:01:43.464Z,59.00
2018-06-09T13:04:12.178Z,59.20
2018-06-09T13:09:09.334Z,59.90
2018-06-09T13:11:38.185Z,58.60
2018-06-09T13:14:06.938Z,57.00
2018-06-09T13:16:35.577Z,55.30
2018-06-09T13:19:04.444Z,56.60
2018-06-09T13:21:33.185Z,55.00
2018-06-09T13:24:01.918Z,57.00
2018-06-09T13:26:30.621Z,55.70
2018-06-09T13:28:59.349Z,54.20
2018-06-09T13:31:28.062Z,56.70
2018-06-09T13:33:56.778Z,53.10
2018-06-09T13:36:25.474Z,52.10
2018-06-09T13:38:54.381Z,51.30
2018-06-09T13:41:23.080Z,52.40
2018-06-09T13:43:51.816Z,49.90
2018-06-09T13:46:20.550Z,50.80
2018-06-09T13:48:49.245Z,49.80
2018-06-09T13:51:17.985Z,49.00
2018-06-09T13:53:46.705Z,48.40
2018-06-09T13:56:15.421Z,50.40
2018-06-09T13:58:44.113Z,51.30
2018-06-09T14:01:12.862Z,50.50
2018-06-09T14:03:41.595Z,51.00
2018-06-09T14:06:10.444Z,51.40
2018-06-09T14:08:40.157Z,49.60
2018-06-09T14:11:08.881Z,51.10
2018-06-09T14:13:37.624Z,48.60
2018-06-09T14:16:06.357Z,49.10
2018-06-09T14:18:35.074Z,49.50
2018-06-09T14:21:03.806Z,46.40
2018-06-09T14:23:32.526Z,48.80
2018-06-09T14:26:01.250Z,50.40
2018-06-09T14:28:30.005Z,46.10
2018-06-09T14:30:58.722Z,47.30
2018-06-09T14:33:27.425Z,46.10
2018-06-09T14:35:56.129Z,45.40
2018-06-09T14:38:24.858Z,46.70
2018-06-09T14:40:53.569Z,45.80
2018-06-09T14:43:22.349Z,48.10
2018-06-09T14:45:51.101Z,45.30
2018-06-09T14:48:19.814Z,45.90
2018-06-09T14:50:48.698Z,45.90
2018-06-09T14:53:17.401Z,46.50
2018-06-09T14:55:46.110Z,46.90
2018-06-09T14:58:14.858Z,46.00
2018-06-09T15:00:43.577Z,47.30
2018-06-09T15:03:12.352Z,47.30
2018-06-09T15:05:41.111Z,46.40
2018-06-09T15:08:09.828Z,47.10
2018-06-09T15:10:38.541Z,47.30
2018-06-09T15:13:07.433Z,48.20
2018-06-09T15:15:36.141Z,45.70
2018-06-09T15:18:05.017Z,47.10
2018-06-09T15:20:35.729Z,47.10
2018-06-09T15:23:04.446Z,48.40
2018-06-09T15:25:33.302Z,48.20
2018-06-09T15:28:02.093Z,48.20
2018-06-09T15:30:30.799Z,49.50
2018-06-09T15:32:59.514Z,48.70
2018-06-09T15:35:28.281Z,50.30
2018-06-09T15:37:57.041Z,50.80
2018-06-09T15:40:25.751Z,50.80
2018-06-09T15:42:54.505Z,51.80
2018-06-09T15:45:23.269Z,51.60
2018-06-09T15:47:51.993Z,53.00
2018-06-09T15:50:20.853Z,54.30
2018-06-09T15:52:49.642Z,52.80
2018-06-09T15:57:46.841Z,52.00
2018-06-09T16:00:15.562Z,50.10
2018-06-09T16:02:44.311Z,49.30
2018-06-09T16:05:13.025Z,49.70
2018-06-09T16:07:42.478Z,50.80
2018-06-09T16:10:11.204Z,51.60
2018-06-09T16:12:39.951Z,54.10
2018-06-09T16:15:08.825Z,57.00
2018-06-09T16:17:37.553Z,59.10
2018-06-09T16:20:06.315Z,59.60
2018-06-09T16:22:35.049Z,59.70
2018-06-09T16:25:03.765Z,59.90
2018-06-09T16:27:32.466Z,60.20
2018-06-09T16:30:01.232Z,61.30
2018-06-09T16:32:29.943Z,62.20
2018-06-09T16:34:58.715Z,61.60
2018-06-09T16:37:27.389Z,62.00
2018-06-09T16:39:56.086Z,62.90
2018-06-09T16:42:24.809Z,63.00
2018-06-09T16:44:53.562Z,63.00
2018-06-09T16:47:22.266Z,61.50
2018-06-09T16:49:50.980Z,62.70
2018-06-09T16:52:19.698Z,63.90
2018-06-09T16:54:48.488Z,63.90
2018-06-09T16:57:17.229Z,63.80
2018-06-09T16:59:45.992Z,64.00
2018-06-09T17:02:14.690Z,64.00
2018-06-09T17:04:44.519Z,64.10
2018-06-09T17:07:13.205Z,63.30
2018-06-09T17:09:41.954Z,64.80
2018-06-09T17:12:10.657Z,64.80
2018-06-09T17:14:39.402Z,66.40
2018-06-09T17:17:08.117Z,65.10
2018-06-09T17:19:36.839Z,66.70
2018-06-09T17:22:05.753Z,65.90
2018-06-09T17:24:34.461Z,66.30
2018-06-09T17:27:03.177Z,65.60
2018-06-09T17:29:31.906Z,64.50
2018-06-09T17:32:00.635Z,63.60
2018-06-09T17:34:29.369Z,63.80
2018-06-09T17:36:58.106Z,64.40
2018-06-09T17:39:30.791Z,65.10
2018-06-09T17:41:59.507Z,65.70
2018-06-09T17:44:28.249Z,66.20
2018-06-09T17:46:56.961Z,65.80
2018-06-09T17:49:25.656Z,66.20
2018-06-09T17:51:54.360Z,66.50
2018-06-09T17:54:23.103Z,66.90
2018-06-09T17:56:51.804Z,67.60
2018-06-09T17:59:20.502Z,67.90
2018-06-09T18:01:49.255Z,68.10
2018-06-09T18:04:17.980Z,68.30
2018-06-09T18:06:46.707Z,68.20
2018-06-09T18:09:15.417Z,68.00
2018-06-09T18:11:44.149Z,68.00
2018-06-09T18:14:12.873Z,67.70
2018-06-09T18:16:41.609Z,67.90
2018-06-09T18:19:10.313Z,66.60
2018-06-09T18:21:39.017Z,67.70
2018-06-09T18:24:07.737Z,68.80
2018-06-09T18:26:36.662Z,68.80
2018-06-09T18:29:05.442Z,69.00
2018-06-09T18:31:34.145Z,68.80
2018-06-09T18:34:02.932Z,69.80
2018-06-09T18:36:31.589Z,70.00
2018-06-09T18:39:00.294Z,71.10
2018-06-09T18:41:29.001Z,71.80
2018-06-09T18:44:02.781Z,72.00
2018-06-09T18:46:31.521Z,72.80
2018-06-09T18:49:01.007Z,72.70
2018-06-09T18:51:40.562Z,72.80
2018-06-09T18:54:09.310Z,72.80
2018-06-09T18:56:38.043Z,71.90
2018-06-09T18:59:06.905Z,71.90
2018-06-09T19:01:35.626Z,71.70
2018-06-09T19:04:04.388Z,72.60
2018-06-09T19:09:01.550Z,73.50
2018-06-09T19:11:30.254Z,72.90
2018-06-09T19:13:59.381Z,73.30
2018-06-09T19:16:28.148Z,73.80
2018-06-09T19:18:56.891Z,74.10
2018-06-09T19:21:25.937Z,74.40
2018-06-09T19:23:54.606Z,73.80
2018-06-09T19:26:23.521Z,74.00
2018-06-09T19:28:52.293Z,74.10
2018-06-09T19:31:25.058Z,73.20
2018-06-09T19:33:53.805Z,73.90
2018-06-09T19:36:23.394Z,74.30
2018-06-09T19:38:52.125Z,74.50
2018-06-09T19:41:20.850Z,75.40
2018-06-09T19:43:49.658Z,75.70
2018-06-09T19:46:18.417Z,76.10
2018-06-09T19:48:48.305Z,77.10
2018-06-09T19:51:17.157Z,78.50
2018-06-09T19:53:45.901Z,80.90
2018-06-09T19:56:14.654Z,81.90
2018-06-09T19:58:43.397Z,84.50
2018-06-09T20:01:12.137Z,85.60
2018-06-09T20:06:09.413Z,88.90
2018-06-09T20:08:38.170Z,89.30
2018-06-09T20:11:06.818Z,90.40
2018-06-09T20:13:35.529Z,88.90
2018-06-09T20:16:04.284Z,89.00
2018-06-09T20:18:32.984Z,87.00
2018-06-09T20:21:01.685Z,88.10
2018-06-09T20:23:32.713Z,87.30
2018-06-09T20:26:04.745Z,89.80
2018-06-09T20:28:33.671Z,88.30
2018-06-09T20:31:02.454Z,88.00
2018-06-09T20:33:31.174Z,90.30
2018-06-09T20:35:59.913Z,90.80
2018-06-09T20:38:28.640Z,90.60
2018-06-09T20:41:15.219Z,89.70
2018-06-09T20:43:43.906Z,89.80
2018-06-09T20:46:12.640Z,91.00
2018-06-09T20:48:41.454Z,91.90
2018-06-09T20:51:10.949Z,92.20
2018-06-09T20:53:39.681Z,92.20
2018-06-09T20:56:08.553Z,91.40
2018-06-09T20:58:39.816Z,91.80
2018-06-09T21:01:08.610Z,92.10
2018-06-09T21:03:37.360Z,91.10
2018-06-09T21:06:06.050Z,91.50
2018-06-09T21:08:34.761Z,91.40
2018-06-09T21:11:03.609Z,91.40
2018-06-09T21:13:32.334Z,91.60
2018-06-09T21:16:01.037Z,91.00
2018-06-09T21:18:29.897Z,91.50
2018-06-09T21:20:58.589Z,91.80
2018-06-09T21:23:27.313Z,92.20
2018-06-09T21:25:56.026Z,92.10
2018-06-09T21:28:24.737Z,92.10
2018-06-09T21:30:58.884Z,92.00
2018-06-09T21:33:44.497Z,92.40
2018-06-09T21:36:20.746Z,92.60
2018-06-09T21:38:54.752Z,93.10
2018-06-09T21:41:27.693Z,93.00
2018-06-09T21:44:00.828Z,93.30
2018-06-09T21:46:34.941Z,92.50
2018-06-09T21:49:03.714Z,93.00
2018-06-09T21:51:32.465Z,93.20
2018-06-09T21:54:01.197Z,93.00
2018-06-09T21:56:29.906Z,92.90
2018-06-09T21:58:58.638Z,93.40
2018-06-09T22:01:27.517Z,92.70
2018-06-09T22:04:01.842Z,93.00
2018-06-09T22:06:30.569Z,93.20
2018-06-09T22:08:59.302Z,93.40
2018-06-09T22:11:28.045Z,93.10
2018-06-09T22:13:56.770Z,93.00
2018-06-09T22:16:26.173Z,93.20
2018-06-09T22:18:54.887Z,93.20
2018-06-09T22:21:23.633Z,93.00
2018-06-09T22:23:58.434Z,93.40
2018-06-09T22:26:27.133Z,93.10
2018-06-09T22:28:55.895Z,93.50
2018-06-09T22:31:24.641Z,93.80
2018-06-09T22:33:53.373Z,94.00
2018-06-09T22:36:22.123Z,94.30
2018-06-09T22:38:50.836Z,93.40
2018-06-09T22:41:19.564Z,93.10
2018-06-09T22:43:48.421Z,92.90
2018-06-09T22:46:17.158Z,93.80
2018-06-09T22:48:45.893Z,93.50
2018-06-09T22:51:14.641Z,93.70
2018-06-09T22:53:43.383Z,93.50
2018-06-09T22:56:12.094Z,93.10
2018-06-09T22:58:40.789Z,93.50
2018-06-09T23:01:09.546Z,93.70
2018-06-09T23:03:38.266Z,93.70
2018-06-09T23:06:07.074Z,93.50
2018-06-09T23:08:35.817Z,92.80
2018-06-09T23:11:04.545Z,93.50
2018-06-09T23:13:33.241Z,93.50
2018-06-09T23:16:01.984Z,93.30
2018-06-09T23:18:30.861Z,93.70
2018-06-09T23:20:59.573Z,94.00
2018-06-09T23:23:28.277Z,93.90
2018-06-09T23:25:56.998Z,94.40
2018-06-09T23:28:25.877Z,94.40
2018-06-09T23:35:51.489Z,94.70
2018-06-09T23:38:20.193Z,94.90
2018-06-09T23:40:49.069Z,94.60
2018-06-09T23:43:17.771Z,94.70
2018-06-09T23:45:46.470Z,94.80
2018-06-09T23:48:15.409Z,95.10
2018-06-09T23:50:44.148Z,95.20
2018-06-09T23:53:12.887Z,95.30
2018-06-09T23:55:41.590Z,95.30
2018-06-09T23:58:10.305Z,95.20
